Maersk Dunbar — A8GU7 — position and weather

sailwx.info

Track history (hours):
 
Tides and Currents Weather Stations Pressure Air Temp Water Temp Dewpoint Dewpoint Depression Visibility Wind Speed Wind Dir Waves Ship Positions

Maersk Dunbar

Last reported at 2018-Feb-20 09:33 UTC. Time now 2018-Feb-24 06:02 UTC.
Position N 09°18' W 079°55'.

Length 264 m; beam 32.3 m; draft 12.5 m.

Type: Ship (hazmat cat B). MMSI: 636090862.

Date/timePositionNaut miles runAvg speedWind from/ knotsBaromVisibWave heightAir tempDewpointWater temp
2018-Feb-20 09:33N 09°18' W 079°55'1 6.0
2018-Feb-20 09:26N 09°19' W 079°55'3 5.5
2018-Feb-20 08:58N 09°22' W 079°55'2 5.0
2018-Feb-20 08:30N 09°24' W 079°55'3 5.5
2018-Feb-20 08:00N 09°27' W 079°55'4 6.1
2018-Feb-20 07:24N 09°30' W 079°56'1 0.8
2018-Feb-20 06:02N 09°31' W 079°56'1 5.7
2018-Feb-20 05:56N 09°31' W 079°55'  
2018-Feb-17 00:00N 18°54' W 074°30'51613.4 090 / 161019.010.8 26.021.526.0
2018-Feb-15 09:32N 26°03' W 079°41'115.6
2018-Feb-15 09:29N 26°03' W 079°42'815.4
2018-Feb-15 09:00N 26°05' W 079°50'815.3
2018-Feb-15 08:30N 26°06' W 079°59'611.8
2018-Feb-15 08:00N 26°05' W 080°05'2 3.5
2018-Feb-15 07:30N 26°05' W 080°07'0 0.9
2018-Feb-15 07:00N 26°04' W 080°07'0 0.0
2018-Feb-15 06:30N 26°04' W 080°07'0 0.0
2018-Feb-15 06:00N 26°04' W 080°07'0 0.0
2018-Feb-15 05:30N 26°04' W 080°07'0 0.0
2018-Feb-15 05:00N 26°04' W 080°07'0 0.0
2018-Feb-15 04:30N 26°04' W 080°07'0 0.0
2018-Feb-15 03:57N 26°04' W 080°07'0 0.0
2018-Feb-15 03:30N 26°04' W 080°07'0 0.0
2018-Feb-15 03:00N 26°04' W 080°07'0 0.0
2018-Feb-15 02:30N 26°04' W 080°07'0 0.0
2018-Feb-15 02:00N 26°04' W 080°07'0 0.0
2018-Feb-15 01:30N 26°04' W 080°07'0 0.0
2018-Feb-15 01:00N 26°04' W 080°07'0 0.0
2018-Feb-15 00:30N 26°04' W 080°07'0 0.0
2018-Feb-15 00:00N 26°04' W 080°07'0 0.0
2018-Feb-14 23:30N 26°04' W 080°07'0 0.0
2018-Feb-14 23:00N 26°04' W 080°07'0 0.0
2018-Feb-14 22:30N 26°04' W 080°07'0 0.0
2018-Feb-14 22:00N 26°04' W 080°07'0 0.0
2018-Feb-14 21:30N 26°04' W 080°07'0 0.0
2018-Feb-14 21:00N 26°04' W 080°07'0 0.0
2018-Feb-14 20:30N 26°04' W 080°07'0 0.0
2018-Feb-14 20:00N 26°04' W 080°07'0 0.0
2018-Feb-14 19:30N 26°04' W 080°07'0 0.0
2018-Feb-14 19:00N 26°04' W 080°07'0 0.0
2018-Feb-14 18:30N 26°04' W 080°07'0 0.0
2018-Feb-14 18:00N 26°04' W 080°07'0 0.0
2018-Feb-14 17:30N 26°04' W 080°07'0 0.0
2018-Feb-14 17:00N 26°04' W 080°07'0 0.0
2018-Feb-14 16:29N 26°04' W 080°07'0 0.4
2018-Feb-14 16:00N 26°05' W 080°07'1 2.4
2018-Feb-14 15:30N 26°06' W 080°06'4 8.7
2018-Feb-14 15:00N 26°06' W 080°01'3 6.7
2018-Feb-14 14:30N 26°07' W 079°58'4 8.4
2018-Feb-14 14:00N 26°10' W 079°54'4 8.3
2018-Feb-14 13:30N 26°13' W 079°51'611.5
2018-Feb-14 13:00N 26°17' W 079°46'  
2018-Feb-12 05:00N 33°54' W 076°30'14412.0 180 / 201021.0 5.4 22.018.811.0
2018-Feb-11 17:00N 36°00' W 075°06'6811.0 180 / 251020.0 0.5 16.012.4 8.0
2018-Feb-11 10:52N 36°54' W 075°56'8 8.4
2018-Feb-11 09:54N 37°01' W 076°02'717.6
2018-Feb-11 09:30N 37°06' W 076°07'10518.2
2018-Feb-11 03:44N 38°50' W 076°24'417.8
2018-Feb-11 03:30N 38°54' W 076°23'1712.6
2018-Feb-11 02:11N 39°11' W 076°27'610.4
2018-Feb-11 01:39N 39°14' W 076°33'1 5.4
2018-Feb-11 01:24N 39°15' W 076°33'0 0.0
2018-Feb-10 15:54N 39°15' W 076°33'0 0.0
2018-Feb-10 15:30N 39°15' W 076°33'0 0.0
2018-Feb-10 14:36N 39°15' W 076°33'0 0.0
2018-Feb-10 14:24N 39°15' W 076°33'0 0.0
2018-Feb-10 13:51N 39°15' W 076°33'0 0.0
2018-Feb-10 13:21N 39°15' W 076°33'0 0.0
2018-Feb-10 11:00N 39°15' W 076°33'1 2.7
2018-Feb-10 10:28N 39°14' W 076°33'3 6.8
2018-Feb-10 10:00N 39°12' W 076°30'  
Track history (hours):
 
Tides and Currents Weather Stations Pressure Air Temp Water Temp Dewpoint Dewpoint Depression Visibility Wind Speed Wind Dir Waves Ship Positions

Maersk Dunbar

Last reported at 2018-Feb-20 09:33 UTC. Time now 2018-Feb-24 06:02 UTC.
Position N 09°18' W 079°55'.

Length 264 m; beam 32.3 m; draft 12.5 m.

Type: Ship (hazmat cat B). MMSI: 636090862.

Date/timePositionNaut miles runAvg speedWind from/ knotsBaromVisibWave heightAir tempDewpointWater temp
2018-Feb-20 09:33N 09°18' W 079°55'1 6.0
2018-Feb-20 09:26N 09°19' W 079°55'3 5.5
2018-Feb-20 08:58N 09°22' W 079°55'2 5.0
2018-Feb-20 08:30N 09°24' W 079°55'3 5.5
2018-Feb-20 08:00N 09°27' W 079°55'4 6.1
2018-Feb-20 07:24N 09°30' W 079°56'1 0.8
2018-Feb-20 06:02N 09°31' W 079°56'1 5.7
2018-Feb-20 05:56N 09°31' W 079°55'  
2018-Feb-17 00:00N 18°54' W 074°30'51613.4 090 / 161019.010.8 26.021.526.0
2018-Feb-15 09:32N 26°03' W 079°41'115.6
2018-Feb-15 09:29N 26°03' W 079°42'815.4
2018-Feb-15 09:00N 26°05' W 079°50'815.3
2018-Feb-15 08:30N 26°06' W 079°59'611.8
2018-Feb-15 08:00N 26°05' W 080°05'2 3.5
2018-Feb-15 07:30N 26°05' W 080°07'0 0.9
2018-Feb-15 07:00N 26°04' W 080°07'0 0.0
2018-Feb-15 06:30N 26°04' W 080°07'0 0.0
2018-Feb-15 06:00N 26°04' W 080°07'0 0.0
2018-Feb-15 05:30N 26°04' W 080°07'0 0.0
2018-Feb-15 05:00N 26°04' W 080°07'0 0.0
2018-Feb-15 04:30N 26°04' W 080°07'0 0.0
2018-Feb-15 03:57N 26°04' W 080°07'0 0.0
2018-Feb-15 03:30N 26°04' W 080°07'0 0.0
2018-Feb-15 03:00N 26°04' W 080°07'0 0.0
2018-Feb-15 02:30N 26°04' W 080°07'0 0.0
2018-Feb-15 02:00N 26°04' W 080°07'0 0.0
2018-Feb-15 01:30N 26°04' W 080°07'0 0.0
2018-Feb-15 01:00N 26°04' W 080°07'0 0.0
2018-Feb-15 00:30N 26°04' W 080°07'0 0.0
2018-Feb-15 00:00N 26°04' W 080°07'0 0.0
2018-Feb-14 23:30N 26°04' W 080°07'0 0.0
2018-Feb-14 23:00N 26°04' W 080°07'0 0.0
2018-Feb-14 22:30N 26°04' W 080°07'0 0.0
2018-Feb-14 22:00N 26°04' W 080°07'0 0.0
2018-Feb-14 21:30N 26°04' W 080°07'0 0.0
2018-Feb-14 21:00N 26°04' W 080°07'0 0.0
2018-Feb-14 20:30N 26°04' W 080°07'0 0.0
2018-Feb-14 20:00N 26°04' W 080°07'0 0.0
2018-Feb-14 19:30N 26°04' W 080°07'0 0.0
2018-Feb-14 19:00N 26°04' W 080°07'0 0.0
2018-Feb-14 18:30N 26°04' W 080°07'0 0.0
2018-Feb-14 18:00N 26°04' W 080°07'0 0.0
2018-Feb-14 17:30N 26°04' W 080°07'0 0.0
2018-Feb-14 17:00N 26°04' W 080°07'0 0.0
2018-Feb-14 16:29N 26°04' W 080°07'0 0.4
2018-Feb-14 16:00N 26°05' W 080°07'1 2.4
2018-Feb-14 15:30N 26°06' W 080°06'4 8.7
2018-Feb-14 15:00N 26°06' W 080°01'3 6.7
2018-Feb-14 14:30N 26°07' W 079°58'4 8.4
2018-Feb-14 14:00N 26°10' W 079°54'4 8.3
2018-Feb-14 13:30N 26°13' W 079°51'611.5
2018-Feb-14 13:00N 26°17' W 079°46'  
2018-Feb-12 05:00N 33°54' W 076°30'14412.0 180 / 201021.0 5.4 22.018.811.0
2018-Feb-11 17:00N 36°00' W 075°06'6811.0 180 / 251020.0 0.5 16.012.4 8.0
2018-Feb-11 10:52N 36°54' W 075°56'8 8.4
2018-Feb-11 09:54N 37°01' W 076°02'717.6
2018-Feb-11 09:30N 37°06' W 076°07'10518.2
2018-Feb-11 03:44N 38°50' W 076°24'417.8
2018-Feb-11 03:30N 38°54' W 076°23'1712.6
2018-Feb-11 02:11N 39°11' W 076°27'610.4
2018-Feb-11 01:39N 39°14' W 076°33'1 5.4
2018-Feb-11 01:24N 39°15' W 076°33'0 0.0
2018-Feb-10 15:54N 39°15' W 076°33'0 0.0
2018-Feb-10 15:30N 39°15' W 076°33'0 0.0
2018-Feb-10 14:36N 39°15' W 076°33'0 0.0
2018-Feb-10 14:24N 39°15' W 076°33'0 0.0
2018-Feb-10 13:51N 39°15' W 076°33'0 0.0
2018-Feb-10 13:21N 39°15' W 076°33'0 0.0
2018-Feb-10 11:00N 39°15' W 076°33'1 2.7
2018-Feb-10 10:28N 39°14' W 076°33'3 6.8
2018-Feb-10 10:00N 39°12' W 076°30'  

Dump ship's entire track history